createdAt,value
2017-11-12T00:09:57.991Z,18.03
2017-11-12T00:20:01.261Z,21.40
2017-11-12T00:30:04.459Z,15.30
2017-11-12T00:40:07.633Z,16.70
2017-11-12T00:50:10.820Z,17.40
2017-11-12T01:00:13.990Z,19.57
2017-11-12T01:10:17.183Z,18.83
2017-11-12T01:20:20.371Z,17.17
2017-11-12T01:30:23.543Z,17.63
2017-11-12T01:40:27.526Z,18.90
2017-11-12T01:50:30.725Z,16.33
2017-11-12T02:00:34.026Z,16.83
2017-11-12T02:10:37.223Z,13.83
2017-11-12T02:20:40.372Z,15.50
2017-11-12T02:30:43.543Z,16.47
2017-11-12T02:40:46.714Z,16.00
2017-11-12T02:50:49.856Z,14.53
2017-11-12T03:00:53.026Z,16.87
2017-11-12T03:10:56.191Z,16.37
2017-11-12T03:20:59.719Z,17.40
2017-11-12T03:31:02.888Z,14.00
2017-11-12T03:41:06.125Z,16.13
2017-11-12T03:51:09.272Z,15.80
2017-11-12T04:01:12.443Z,16.92
2017-11-12T04:11:16.365Z,15.40
2017-11-12T04:21:20.316Z,17.37
2017-11-12T04:31:23.518Z,18.50
2017-11-12T04:41:26.680Z,16.50
2017-11-12T04:51:29.878Z,16.07
2017-11-12T05:01:33.051Z,17.63
2017-11-12T05:11:36.213Z,17.00
2017-11-12T05:21:40.160Z,15.60
2017-11-12T05:31:44.084Z,14.93
2017-11-12T05:41:47.298Z,17.57
2017-11-12T05:51:50.475Z,17.47
2017-11-12T06:01:53.673Z,15.80
2017-11-12T06:11:56.854Z,16.67
2017-11-12T06:22:00.027Z,12.30
2017-11-12T06:32:03.202Z,13.88
2017-11-12T06:42:06.389Z,16.40
2017-11-12T06:52:09.619Z,18.57
2017-11-12T07:02:13.580Z,18.27
2017-11-12T07:12:16.762Z,18.33
2017-11-12T07:22:20.084Z,17.13
2017-11-12T07:32:23.284Z,19.63
2017-11-12T07:42:27.267Z,17.33
2017-11-12T07:52:30.455Z,19.53
2017-11-12T08:02:33.635Z,17.97
2017-11-12T08:12:36.799Z,16.70
2017-11-12T08:22:39.957Z,18.47
2017-11-12T08:32:43.158Z,19.50
2017-11-12T08:42:46.340Z,24.12
2017-11-12T08:52:49.500Z,24.60
2017-11-12T09:02:53.441Z,23.40
2017-11-12T09:12:56.644Z,22.83
2017-11-12T09:22:59.787Z,22.63
2017-11-12T09:33:02.992Z,23.60
2017-11-12T09:43:06.204Z,23.58
2017-11-12T09:53:10.141Z,18.10
2017-11-12T10:03:13.448Z,13.95
2017-11-12T10:13:16.634Z,12.30
2017-11-12T10:23:20.681Z,7.43
2017-11-12T10:33:23.890Z,6.63
2017-11-12T10:43:28.711Z,5.83
2017-11-12T10:53:32.668Z,6.33
2017-11-12T11:03:36.671Z,6.17
2017-11-12T11:13:39.885Z,5.50
2017-11-12T11:23:43.073Z,5.17
2017-11-12T11:33:46.266Z,5.23
2017-11-12T11:43:49.468Z,6.10
2017-11-12T11:53:52.667Z,5.20
2017-11-12T12:03:55.883Z,5.70
2017-11-12T12:13:59.065Z,5.40
2017-11-12T12:24:02.236Z,3.20
2017-11-12T12:34:05.406Z,3.60
2017-11-12T12:44:08.578Z,3.80
2017-11-12T12:54:11.779Z,5.90
2017-11-12T13:04:14.933Z,4.30
2017-11-12T13:14:18.209Z,5.37
2017-11-12T13:24:22.166Z,3.57
2017-11-12T13:34:26.070Z,3.07
2017-11-12T13:44:29.264Z,2.70
2017-11-12T13:54:32.536Z,4.28
2017-11-12T14:04:35.688Z,4.07
2017-11-12T14:14:38.866Z,3.13
2017-11-12T14:24:42.837Z,5.37
2017-11-12T14:34:46.040Z,7.23
2017-11-12T14:44:49.230Z,5.20
2017-11-12T14:54:52.530Z,4.57
2017-11-12T15:04:56.459Z,4.33
2017-11-12T15:14:59.647Z,5.03
2017-11-12T15:25:02.823Z,5.33
2017-11-12T15:35:06.008Z,7.90
2017-11-12T15:45:09.206Z,8.17
2017-11-12T15:55:12.408Z,10.00
2017-11-12T16:05:15.668Z,7.20
2017-11-12T16:15:18.808Z,7.20
2017-11-12T16:25:22.024Z,7.30
2017-11-12T16:35:25.309Z,10.07
2017-11-12T16:45:28.551Z,9.60
2017-11-12T16:55:31.731Z,9.93
2017-11-12T17:05:34.921Z,7.00
2017-11-12T17:15:38.068Z,6.23
2017-11-12T17:25:42.026Z,8.80
2017-11-12T17:35:45.221Z,7.10
2017-11-12T17:45:48.441Z,4.13
2017-11-12T17:55:51.639Z,3.40
2017-11-12T18:05:54.825Z,3.70
2017-11-12T18:15:58.045Z,5.17
2017-11-12T18:26:01.251Z,4.77
2017-11-12T18:36:04.430Z,6.17
2017-11-12T18:46:07.632Z,5.83
2017-11-12T19:16:44.684Z,6.60
2017-11-12T19:26:48.341Z,7.37
2017-11-12T19:36:51.506Z,9.23
2017-11-12T19:46:54.747Z,7.50
2017-11-12T19:56:57.946Z,7.20
2017-11-12T20:07:01.904Z,9.70
2017-11-12T20:17:05.887Z,8.00
2017-11-12T20:27:09.263Z,8.83
2017-11-12T20:37:12.444Z,10.30
2017-11-12T20:47:16.362Z,10.88
2017-11-12T20:57:19.519Z,10.83
2017-11-12T21:07:22.699Z,12.02
2017-11-12T21:17:25.888Z,11.47
2017-11-12T21:27:30.944Z,10.20
2017-11-12T21:37:35.550Z,9.13
2017-11-12T21:47:38.787Z,7.40
2017-11-12T21:57:41.992Z,7.70
2017-11-12T22:07:45.280Z,8.17
2017-11-12T22:17:48.429Z,7.67
2017-11-12T22:27:52.386Z,8.00
2017-11-12T22:37:56.339Z,8.40
2017-11-12T22:48:00.251Z,9.17
2017-11-12T22:58:03.455Z,9.93
2017-11-12T23:08:06.676Z,8.77
2017-11-12T23:18:09.878Z,9.13
2017-11-12T23:28:13.044Z,11.70
2017-11-12T23:38:17.020Z,11.70
2017-11-12T23:48:20.199Z,13.03
2017-11-12T23:58:23.392Z,12.03
